Time;durP1;ratioP1;P1;durP2;ratioP2;P2;SDS_P1;SDS_P2;PMS_P1;PMS_P2;Temp;Humidity;BMP_temperature;BMP_pressure;BME280_temperature;BME280_humidity;BME280_pressure;Samples;Min_cycle;Max_cycle;Signal;HPM_P1;HPM_P2
2022/02/17 00:00:38;;;;;;;;;0.00;0.00;;;;;15.83;68.66;100157.06;2070871;28;47552;-57
2022/02/17 00:01:38;;;;;;;;;0.00;0.00;;;;;15.82;68.35;100148.16;2071018;28;47511;-57
2022/02/17 00:02:43;;;;;;;;;0.00;0.00;;;;;15.83;68.37;100146.34;2070195;28;47346;-58
2022/02/17 00:03:43;;;;;;;;;0.00;0.00;;;;;15.83;68.18;100141.00;2071110;28;47836;-58
2022/02/17 00:04:44;;;;;;;;;0.00;0.00;;;;;15.83;68.34;100160.59;2071307;28;47888;-58
2022/02/17 00:05:44;;;;;;;;;0.00;0.00;;;;;15.83;68.49;100147.22;2071448;28;47919;-58
2022/02/17 00:06:45;;;;;;;;;0.00;0.00;;;;;15.84;68.45;100156.09;2070797;28;47608;-56
2022/02/17 00:07:45;;;;;;;;;1.00;0.00;;;;;15.85;68.21;100145.31;2070530;28;47834;-57
2022/02/17 00:08:45;;;;;;;;;0.00;0.00;;;;;15.85;68.45;100144.47;2071050;28;47857;-57
2022/02/17 00:09:46;;;;;;;;;0.00;0.00;;;;;15.86;68.33;100146.19;2061664;28;47928;-55
2022/02/17 00:10:46;;;;;;;;;0.00;0.00;;;;;15.85;68.36;100141.78;2061403;28;47536;-57
2022/02/17 00:11:46;;;;;;;;;0.00;0.00;;;;;15.85;67.90;100136.44;2071080;28;47297;-57
2022/02/17 00:12:47;;;;;;;;;0.00;0.00;;;;;15.86;68.42;100135.47;2071192;28;47854;-57
2022/02/17 00:13:48;;;;;;;;;0.00;0.00;;;;;15.86;67.98;100136.34;2072686;28;47833;-58
2022/02/17 00:14:48;;;;;;;;;0.00;0.00;;;;;15.86;67.88;100130.13;2072470;28;48027;-57
2022/02/17 00:15:49;;;;;;;;;0.00;0.00;;;;;15.86;67.97;100125.66;2072263;28;47513;-56
2022/02/17 00:16:52;;;;;;;;;0.00;0.00;;;;;15.85;68.02;100134.63;2071871;28;47869;-56
2022/02/17 00:17:53;;;;;;;;;0.00;0.00;;;;;15.86;68.21;100136.34;2071262;28;48217;-58
2022/02/17 00:18:54;;;;;;;;;0.00;0.00;;;;;15.87;68.33;100126.50;2071485;28;47351;-57
2022/02/17 00:19:55;;;;;;;;;0.00;0.00;;;;;15.89;68.57;100124.66;2072006;28;47580;-56
2022/02/17 00:20:56;;;;;;;;;0.00;0.00;;;;;15.88;68.50;100126.47;2071677;28;47629;-57
2022/02/17 00:21:56;;;;;;;;;0.00;0.00;;;;;15.89;68.55;100127.31;2072369;28;47576;-57
2022/02/17 00:22:57;;;;;;;;;0.00;0.00;;;;;15.88;68.05;100130.94;2072459;28;47880;-58
2022/02/17 00:23:57;;;;;;;;;0.00;0.00;;;;;15.88;68.47;100141.66;2072390;28;47371;-58
2022/02/17 00:24:58;;;;;;;;;0.00;0.00;;;;;15.88;68.22;100153.22;2070920;28;47852;-56
2022/02/17 00:25:58;;;;;;;;;0.00;0.00;;;;;15.88;68.45;100152.34;2071453;28;47752;-57
2022/02/17 00:26:58;;;;;;;;;0.00;0.00;;;;;15.89;68.48;100143.38;2070863;28;47813;-56
2022/02/17 00:27:59;;;;;;;;;0.00;0.00;;;;;15.88;68.37;100155.03;2067893;28;47666;-57
2022/02/17 00:29:00;;;;;;;;;0.00;0.00;;;;;15.88;68.81;100163.91;2068752;28;47732;-57
2022/02/17 00:30:01;;;;;;;;;0.00;0.00;;;;;15.88;68.25;100166.59;2072215;28;48098;-57
2022/02/17 00:31:02;;;;;;;;;0.00;0.00;;;;;15.88;68.90;100150.53;2071789;28;47363;-58
2022/02/17 00:32:03;;;;;;;;;0.00;0.00;;;;;15.88;68.31;100149.69;2071046;28;48014;-57
2022/02/17 00:33:04;;;;;;;;;0.00;0.00;;;;;15.88;68.89;100171.09;2071717;28;47795;-58
2022/02/17 00:34:05;;;;;;;;;0.00;0.00;;;;;15.88;68.94;100174.63;2071642;28;47681;-58
2022/02/17 00:35:06;;;;;;;;;0.00;0.00;;;;;15.88;68.59;100176.44;2072489;28;47549;-58
2022/02/17 00:36:07;;;;;;;;;0.00;0.00;;;;;15.86;68.66;100183.66;2072526;28;47586;-57
2022/02/17 00:37:08;;;;;;;;;0.00;0.00;;;;;15.86;69.38;100186.31;2072210;28;48265;-57
2022/02/17 00:38:09;;;;;;;;;0.00;0.00;;;;;15.85;69.40;100185.47;2066856;28;47327;-57
2022/02/17 00:39:10;;;;;;;;;0.00;0.00;;;;;15.85;69.76;100180.09;2072029;28;47721;-56
2022/02/17 00:40:10;;;;;;;;;0.00;0.00;;;;;15.85;69.71;100188.13;2071969;28;47897;-58
2022/02/17 00:41:11;;;;;;;;;0.00;0.00;;;;;15.85;69.32;100187.28;2072026;28;47253;-57
2022/02/17 00:42:12;;;;;;;;;0.00;0.00;;;;;15.84;69.21;100190.91;2063169;28;47791;-58
2022/02/17 00:43:12;;;;;;;;;0.00;0.00;;;;;15.83;69.30;100186.50;2062794;28;47415;-57
2022/02/17 00:44:15;;;;;;;;;0.00;0.00;;;;;15.82;69.29;100187.44;2072319;28;48045;-56
2022/02/17 00:45:16;;;;;;;;;0.00;0.00;;;;;15.81;69.86;100193.72;2072474;28;48074;-57
2022/02/17 00:46:16;;;;;;;;;0.00;0.00;;;;;15.82;69.72;100200.81;2072364;28;47068;-58
2022/02/17 00:47:18;;;;;;;;;0.00;0.00;;;;;15.81;69.34;100196.41;2071442;28;46639;-57
2022/02/17 00:48:18;;;;;;;;;0.00;0.00;;;;;15.81;69.34;100199.09;2072050;28;48066;-58
2022/02/17 00:49:19;;;;;;;;;0.00;0.00;;;;;15.80;69.76;100218.75;2072460;28;47465;-57
2022/02/17 00:50:19;;;;;;;;;0.00;0.00;;;;;15.79;69.33;100212.53;2072118;28;47554;-58
2022/02/17 00:51:20;;;;;;;;;0.00;0.00;;;;;15.78;69.59;100210.81;2072139;28;47197;-56
2022/02/17 00:52:20;;;;;;;;;0.00;0.00;;;;;15.78;69.45;100215.31;2072237;28;47453;-57
2022/02/17 00:53:21;;;;;;;;;0.00;0.00;;;;;15.77;69.22;100219.78;2072494;28;47462;-57
2022/02/17 00:54:22;;;;;;;;;0.00;0.00;;;;;15.78;69.33;100224.19;2072045;28;47813;-57
2022/02/17 00:55:23;;;;;;;;;0.00;0.00;;;;;15.78;69.29;100232.22;2072346;28;47441;-55
2022/02/17 00:56:23;;;;;;;;;0.00;0.00;;;;;15.78;69.81;100234.91;2071968;28;47387;-55
2022/02/17 00:57:24;;;;;;;;;0.00;0.00;;;;;15.77;69.49;100232.31;2072479;28;47880;-57
2022/02/17 00:58:24;;;;;;;;;0.00;0.00;;;;;15.78;69.78;100217.97;2072262;28;46611;-57
2022/02/17 00:59:26;;;;;;;;;0.00;0.00;;;;;15.78;69.23;100207.28;2072444;28;45500;-57
2022/02/17 01:00:27;;;;;;;;;0.00;0.00;;;;;15.78;69.38;100226.88;2072284;28;48079;-58
2022/02/17 01:01:27;;;;;;;;;0.00;0.00;;;;;15.77;69.55;100226.94;2072134;28;47416;-59
2022/02/17 01:02:28;;;;;;;;;0.00;0.00;;;;;15.77;69.39;100233.16;2072468;28;47522;-58
2022/02/17 01:03:28;;;;;;;;;0.00;0.00;;;;;15.77;69.19;100230.50;2072146;28;47232;-58
2022/02/17 01:04:29;;;;;;;;;0.00;0.00;;;;;15.76;69.12;100228.75;2072209;28;47127;-57
2022/02/17 01:05:30;;;;;;;;;0.00;0.00;;;;;15.77;69.01;100240.31;2071975;28;47465;-57
2022/02/17 01:06:30;;;;;;;;;0.00;0.00;;;;;15.76;69.31;100227.91;2072116;28;47439;-58
2022/02/17 01:07:31;;;;;;;;;0.00;0.00;;;;;15.75;69.50;100234.16;2072204;28;48029;-57
2022/02/17 01:08:31;;;;;;;;;0.00;0.00;;;;;15.74;69.12;100233.28;2071931;28;47841;-57
2022/02/17 01:09:32;;;;;;;;;0.00;0.00;;;;;15.74;68.98;100238.66;2072567;28;47787;-56
2022/02/17 01:10:33;;;;;;;;;0.00;0.00;;;;;15.74;69.32;100241.31;2071881;28;47576;-58
2022/02/17 01:11:34;;;;;;;;;0.00;0.00;;;;;15.74;69.11;100245.81;2072060;28;47537;-56
2022/02/17 01:12:34;;;;;;;;;0.00;0.00;;;;;15.75;69.63;100247.53;2072044;28;47782;-58
2022/02/17 01:13:35;;;;;;;;;0.00;0.00;;;;;15.74;69.49;100246.69;2070828;28;47435;-57
2022/02/17 01:14:35;;;;;;;;;0.00;0.00;;;;;15.74;69.49;100238.66;2071090;28;47465;-58
2022/02/17 01:15:36;;;;;;;;;0.00;0.00;;;;;15.74;69.35;100240.47;2072210;28;47714;-58
2022/02/17 01:16:36;;;;;;;;;0.00;0.00;;;;;15.73;69.75;100246.75;2071930;28;47622;-56
2022/02/17 01:17:37;;;;;;;;;0.00;0.00;;;;;15.72;69.47;100248.56;2072253;28;47643;-58
2022/02/17 01:18:37;;;;;;;;;0.00;0.00;;;;;15.73;69.82;100244.09;2072375;28;47618;-58
2022/02/17 01:19:38;;;;;;;;;0.00;0.00;;;;;15.72;69.79;100235.19;2072068;28;47769;-58
2022/02/17 01:20:40;;;;;;;;;0.00;0.00;;;;;15.71;69.37;100230.78;2072087;28;46874;-57
2022/02/17 01:21:40;;;;;;;;;0.00;0.00;;;;;15.73;69.21;100228.03;2072072;28;47255;-58
2022/02/17 01:22:45;;;;;;;;;0.00;0.00;;;;;15.73;69.11;100236.91;2061647;28;47512;-58
2022/02/17 01:23:45;;;;;;;;;0.00;0.00;;;;;15.73;69.38;100233.38;2063217;28;47879;-58
2022/02/17 01:24:46;;;;;;;;;0.00;0.00;;;;;15.73;69.53;100244.09;2072038;28;47519;-57
2022/02/17 01:25:47;;;;;;;;;0.00;0.00;;;;;15.73;69.72;100226.22;2071935;28;47709;-60
2022/02/17 01:26:48;;;;;;;;;0.00;0.00;;;;;15.74;68.99;100233.28;2072015;28;47862;-58
2022/02/17 01:27:48;;;;;;;;;0.00;0.00;;;;;15.75;69.62;100235.06;2072035;28;46373;-58
2022/02/17 01:28:48;;;;;;;;;0.00;0.00;;;;;15.76;69.00;100230.56;2071876;28;47726;-58
2022/02/17 01:29:49;;;;;;;;;0.00;0.00;;;;;15.75;69.27;100235.06;2072362;28;47281;-58
2022/02/17 01:30:49;;;;;;;;;0.00;0.00;;;;;15.75;68.85;100245.75;2070344;28;47231;-57
2022/02/17 01:31:50;;;;;;;;;0.00;0.00;;;;;15.76;68.78;100249.31;2071838;28;47356;-56
2022/02/17 01:32:50;;;;;;;;;0.00;0.00;;;;;15.75;69.15;100248.44;2072204;28;47900;-58
2022/02/17 01:33:51;;;;;;;;;0.00;0.00;;;;;15.76;68.21;100263.53;2071887;28;47996;-56
2022/02/17 01:34:51;;;;;;;;;0.00;0.00;;;;;15.74;68.19;100268.06;2071888;28;48184;-58
2022/02/17 01:35:51;;;;;;;;;0.67;0.00;;;;;15.75;68.09;100274.28;2072360;28;47945;-59
2022/02/17 01:36:52;;;;;;;;;0.33;0.00;;;;;15.73;68.25;100274.38;2062137;28;47352;-59
2022/02/17 01:37:52;;;;;;;;;0.00;0.00;;;;;15.73;68.32;100265.47;2063014;28;47898;-60
2022/02/17 01:38:53;;;;;;;;;0.00;0.00;;;;;15.73;67.95;100273.50;2072025;28;47508;-58
2022/02/17 01:39:53;;;;;;;;;0.00;0.00;;;;;15.71;67.72;100284.28;2072131;28;47251;-58
2022/02/17 01:40:54;;;;;;;;;0.00;0.00;;;;;15.72;67.71;100287.81;2072357;28;48034;-59
2022/02/17 01:41:55;;;;;;;;;0.00;0.00;;;;;15.72;67.80;100294.03;2072005;28;47415;-59
2022/02/17 01:42:56;;;;;;;;;0.00;0.00;;;;;15.72;67.99;100294.03;2071951;28;48290;-56
2022/02/17 01:44:02;;;;;;;;;0.00;0.00;;;;;15.73;67.87;100313.63;2072161;28;47849;-59
2022/02/17 01:45:04;;;;;;;;;0.25;0.00;;;;;15.73;67.96;100300.25;2071039;28;47931;-60
2022/02/17 01:46:06;;;;;;;;;0.00;0.00;;;;;15.72;67.67;100291.38;2071642;28;47772;-57
2022/02/17 01:47:08;;;;;;;;;0.00;0.00;;;;;15.72;67.50;100296.72;2071663;28;47990;-59
2022/02/17 01:48:09;;;;;;;;;0.00;0.00;;;;;15.73;67.30;100306.47;2071851;28;47549;-57
2022/02/17 01:49:11;;;;;;;;;0.00;0.00;;;;;15.72;67.34;100307.41;2072137;28;48113;-58
2022/02/17 01:50:11;;;;;;;;;0.00;0.00;;;;;15.72;67.31;100302.06;2071904;28;47255;-58
2022/02/17 01:51:12;;;;;;;;;0.00;0.00;;;;;15.72;67.04;100295.84;2072036;28;47841;-59
2022/02/17 01:52:13;;;;;;;;;0.00;0.00;;;;;15.72;67.23;100278.00;2072324;28;47197;-58
2022/02/17 01:53:16;;;;;;;;;0.00;0.00;;;;;15.74;67.24;100277.91;2071647;28;46837;-58
2022/02/17 01:54:18;;;;;;;;;0.00;0.00;;;;;15.74;67.02;100281.44;2072081;28;47892;-57
2022/02/17 01:55:20;;;;;;;;;0.00;0.00;;;;;15.73;66.44;100294.91;2071543;28;47377;-58
2022/02/17 01:56:20;;;;;;;;;0.00;0.00;;;;;15.73;66.14;100308.28;2071879;28;47894;-57
2022/02/17 01:57:27;;;;;;;;;0.00;0.00;;;;;15.72;66.39;100312.78;2068530;28;48295;-55
2022/02/17 01:58:29;;;;;;;;;0.25;0.00;;;;;15.71;65.90;100305.69;2068550;28;47694;-57
2022/02/17 01:59:29;;;;;;;;;0.00;0.00;;;;;15.70;65.06;100297.75;2070496;28;47351;-58
2022/02/17 02:00:31;;;;;;;;;0.33;0.33;;;;;15.70;65.12;100305.78;2071585;28;47677;-57
2022/02/17 02:01:33;;;;;;;;;0.00;0.00;;;;;15.70;65.19;100297.75;2071457;28;47912;-57
2022/02/17 02:02:34;;;;;;;;;0.00;0.00;;;;;15.69;65.21;100301.38;2071288;28;47643;-59
2022/02/17 02:03:34;;;;;;;;;0.00;0.00;;;;;15.68;65.42;100300.50;2071752;28;47731;-57
2022/02/17 02:04:35;;;;;;;;;1.00;1.00;;;;;15.68;65.16;100305.84;2071747;28;48385;-58
2022/02/17 02:05:36;;;;;;;;;0.00;0.00;;;;;15.69;65.00;100328.13;2071954;28;47805;-58
2022/02/17 02:06:36;;;;;;;;;0.50;0.50;;;;;15.67;65.17;100325.53;2071657;28;47964;-58
2022/02/17 02:07:37;;;;;;;;;0.00;0.00;;;;;15.68;65.02;100327.25;2071663;28;47431;-58
2022/02/17 02:08:38;;;;;;;;;0.00;0.00;;;;;15.68;64.76;100331.72;2071661;28;47802;-57
2022/02/17 02:09:39;;;;;;;;;0.00;0.00;;;;;15.69;65.00;100331.66;2071404;28;47213;-57
2022/02/17 02:10:40;;;;;;;;;0.75;0.00;;;;;15.69;64.91;100323.63;2061756;28;48310;-58
2022/02/17 02:11:41;;;;;;;;;1.00;0.00;;;;;15.69;64.41;100323.63;2062434;28;47904;-56
2022/02/17 02:12:41;;;;;;;;;0.00;0.00;;;;;15.69;64.53;100331.66;2072331;28;45964;-57
2022/02/17 02:13:42;;;;;;;;;5.00;2.00;;;;;15.69;64.01;100331.66;2071932;28;47729;-58
2022/02/17 02:14:56;;;;;;;;;0.33;0.33;;;;;15.68;63.78;100332.59;2071482;28;48354;-56
2022/02/17 02:15:57;;;;;;;;;3.25;1.00;;;;;15.67;64.10;100333.53;2063738;28;47679;-58
2022/02/17 02:16:59;;;;;;;;;2.25;1.25;;;;;15.68;63.80;100332.59;2067886;28;47560;-58
2022/02/17 02:17:59;;;;;;;;;2.25;0.00;;;;;15.67;63.79;100330.00;2071581;28;47449;-57
2022/02/17 02:19:00;;;;;;;;;0.00;0.00;;;;;15.67;63.20;100338.91;2071641;28;45735;-58
2022/02/17 02:20:03;;;;;;;;;3.00;0.00;;;;;15.66;63.64;100333.63;2070787;28;47480;-58
2022/02/17 02:21:04;;;;;;;;;0.75;0.75;;;;;15.66;63.30;100349.66;2071124;28;47647;-58
2022/02/17 02:22:04;;;;;;;;;0.00;0.00;;;;;15.65;62.92;100337.25;2062849;28;47895;-58
2022/02/17 02:23:05;;;;;;;;;0.00;0.00;;;;;15.63;62.49;100342.66;2071119;28;47298;-57
2022/02/17 02:24:05;;;;;;;;;1.33;0.00;;;;;15.62;62.58;100340.03;2072048;28;47679;-57
2022/02/17 02:25:06;;;;;;;;;2.67;1.00;;;;;15.60;62.25;100335.63;2061914;28;45845;-58
2022/02/17 02:26:07;;;;;;;;;0.00;0.00;;;;;15.59;61.64;100328.56;2062377;28;48298;-58
2022/02/17 02:27:14;;;;;;;;;0.33;0.33;;;;;15.59;62.23;100324.97;2071824;28;47157;-59
2022/02/17 02:28:26;;;;;;;;;1.75;1.00;;;;;15.59;61.38;100335.69;2070303;28;47545;-57
2022/02/17 02:29:27;;;;;;;;;2.50;2.50;;;;;15.57;61.80;100327.72;2064237;28;48081;-58
2022/02/17 02:30:27;;;;;;;;;0.33;0.33;;;;;15.56;61.63;100322.47;2070659;28;48068;-57
2022/02/17 02:31:28;;;;;;;;;0.67;0.67;;;;;15.55;61.11;100329.63;2062109;28;47652;-57
2022/02/17 02:32:28;;;;;;;;;1.00;1.00;;;;;15.55;61.57;100336.78;2059162;28;47874;-57
2022/02/17 02:33:29;;;;;;;;;1.00;1.00;;;;;15.54;61.47;100310.97;2071547;28;47772;-58
2022/02/17 02:34:29;;;;;;;;;0.67;0.67;;;;;15.53;61.20;100315.47;2071363;28;47257;-59
2022/02/17 02:35:29;;;;;;;;;0.67;0.67;;;;;15.52;61.23;100318.22;2071069;28;47359;-56
2022/02/17 02:36:30;;;;;;;;;1.00;1.00;;;;;15.51;61.79;100325.38;2071177;28;47334;-58
2022/02/17 02:37:30;;;;;;;;;1.67;1.67;;;;;15.50;60.59;100328.09;2071916;28;47537;-58
2022/02/17 02:38:31;;;;;;;;;0.67;0.67;;;;;15.50;61.26;100338.78;2071749;28;47431;-58
2022/02/17 02:39:35;;;;;;;;;0.00;0.00;;;;;15.49;61.43;100353.09;2071452;28;47024;-58
2022/02/17 02:40:35;;;;;;;;;0.75;0.00;;;;;15.47;60.84;100347.81;2061798;28;48041;-57
2022/02/17 02:41:36;;;;;;;;;2.00;1.00;;;;;15.48;60.82;100346.03;2054154;28;47271;-58
2022/02/17 02:42:36;;;;;;;;;2.00;2.00;;;;;15.46;60.63;100340.75;2071104;28;47418;-57
2022/02/17 02:43:37;;;;;;;;;2.00;2.00;;;;;15.45;60.73;100344.38;2071902;28;47917;-58
2022/02/17 02:44:38;;;;;;;;;1.50;1.50;;;;;15.45;60.95;100347.03;2071386;28;47342;-58
2022/02/17 02:45:38;;;;;;;;;1.00;0.33;;;;;15.45;61.15;100343.50;2071424;28;47620;-57
2022/02/17 02:46:39;;;;;;;;;2.00;1.00;;;;;15.44;61.39;100349.78;2071734;28;47936;-57
2022/02/17 02:47:39;;;;;;;;;1.00;1.00;;;;;15.45;60.97;100338.16;2071330;28;47609;-58
2022/02/17 02:48:39;;;;;;;;;2.67;0.67;;;;;15.44;61.65;100350.66;2071678;28;47749;-58
2022/02/17 02:49:40;;;;;;;;;0.67;0.67;;;;;15.44;61.71;100348.00;2071370;28;47676;-57
2022/02/17 02:50:41;;;;;;;;;4.33;1.67;;;;;15.45;61.75;100352.38;2071289;28;47246;-58
2022/02/17 02:51:42;;;;;;;;;2.00;0.75;;;;;15.44;61.49;100361.34;2070309;28;48076;-58
2022/02/17 02:52:42;;;;;;;;;1.00;1.00;;;;;15.44;62.00;100361.34;2070349;28;47575;-59
2022/02/17 02:53:43;;;;;;;;;3.00;1.33;;;;;15.44;62.06;100368.50;2071974;28;48050;-57
2022/02/17 02:54:43;;;;;;;;;1.67;1.00;;;;;15.45;62.08;100364.91;2071167;28;47522;-57
2022/02/17 02:55:46;;;;;;;;;0.67;0.67;;;;;15.45;62.26;100368.44;2069884;28;47361;-56
2022/02/17 02:56:46;;;;;;;;;1.00;1.00;;;;;15.46;62.17;100372.84;2070428;28;47799;-58
2022/02/17 02:57:47;;;;;;;;;3.00;2.00;;;;;15.47;62.09;100360.34;2071257;28;47861;-58
2022/02/17 02:58:47;;;;;;;;;0.00;0.00;;;;;15.46;62.02;100354.13;2071534;28;47492;-58
2022/02/17 02:59:47;;;;;;;;;0.00;0.00;;;;;15.45;62.09;100347.03;2071520;28;47398;-58
2022/02/17 03:00:49;;;;;;;;;1.67;1.67;;;;;15.46;61.91;100347.91;2071714;28;47613;-59
2022/02/17 03:01:49;;;;;;;;;0.50;0.50;;;;;15.45;61.68;100351.53;2071547;28;47258;-58
2022/02/17 03:02:50;;;;;;;;;4.00;1.00;;;;;15.43;61.64;100340.91;2071583;28;48123;-58
2022/02/17 03:03:50;;;;;;;;;0.00;0.00;;;;;15.43;61.29;100342.72;2071251;28;48086;-57
2022/02/17 03:04:51;;;;;;;;;1.00;0.67;;;;;15.42;61.25;100341.84;2071573;28;47559;-56
2022/02/17 03:05:51;;;;;;;;;0.00;0.00;;;;;15.41;60.77;100356.16;2071038;28;47324;-58
2022/02/17 03:06:52;;;;;;;;;0.00;0.00;;;;;15.41;60.52;100349.94;2070925;28;47461;-57
2022/02/17 03:07:54;;;;;;;;;3.00;1.33;;;;;15.39;60.66;100328.63;2070949;28;47809;-59
2022/02/17 03:08:56;;;;;;;;;2.00;1.50;;;;;15.40;60.02;100357.09;2071518;28;47993;-58
2022/02/17 03:09:57;;;;;;;;;1.50;1.50;;;;;15.39;59.17;100355.38;2071305;28;47392;-58
2022/02/17 03:10:57;;;;;;;;;1.33;1.00;;;;;15.37;59.37;100370.59;2071846;28;47695;-57
2022/02/17 03:11:58;;;;;;;;;0.67;0.67;;;;;15.36;58.91;100378.69;2061660;28;47911;-58
2022/02/17 03:12:59;;;;;;;;;3.00;1.00;;;;;15.37;59.29;100377.75;2062647;28;47536;-56
2022/02/17 03:14:00;;;;;;;;;3.00;2.00;;;;;15.36;59.34;100366.19;2071182;28;47622;-57
2022/02/17 03:15:00;;;;;;;;;1.33;0.67;;;;;15.36;59.17;100374.22;2071733;28;47744;-57
2022/02/17 03:16:01;;;;;;;;;3.67;3.67;;;;;15.37;59.07;100375.06;2071395;28;47594;-56
2022/02/17 03:17:02;;;;;;;;;0.50;0.50;;;;;15.37;59.54;100372.41;2070857;28;47455;-56
2022/02/17 03:18:03;;;;;;;;;3.00;3.00;;;;;15.36;58.15;100360.84;2070523;28;48210;-58
2022/02/17 03:19:06;;;;;;;;;1.33;1.33;;;;;15.36;58.90;100368.00;2071407;28;47694;-58
2022/02/17 03:20:09;;;;;;;;;3.00;2.00;;;;;15.35;58.84;100363.59;2071202;28;47340;-57
2022/02/17 03:21:10;;;;;;;;;1.75;1.75;;;;;15.34;59.10;100373.41;2071287;28;48258;-58
2022/02/17 03:22:10;;;;;;;;;2.00;2.00;;;;;15.35;58.83;100368.94;2071515;28;47460;-59
2022/02/17 03:23:11;;;;;;;;;3.33;1.67;;;;;15.35;58.58;100385.84;2070870;28;47352;-54
2022/02/17 03:24:11;;;;;;;;;1.00;1.00;;;;;15.34;58.43;100385.91;2070628;28;47980;-57
2022/02/17 03:25:13;;;;;;;;;2.33;2.33;;;;;15.34;58.10;100383.25;2071249;28;47663;-57
2022/02/17 03:26:14;;;;;;;;;1.00;1.00;;;;;15.33;58.00;100379.72;2071340;28;47492;-56
2022/02/17 03:27:14;;;;;;;;;3.33;3.00;;;;;15.31;58.14;100382.44;2071108;28;47372;-58
2022/02/17 03:28:15;;;;;;;;;2.00;1.00;;;;;15.29;57.89;100365.63;2071235;28;48055;-58
2022/02/17 03:29:15;;;;;;;;;3.33;3.00;;;;;15.29;58.15;100384.34;2071219;28;47653;-56
2022/02/17 03:30:16;;;;;;;;;1.00;1.00;;;;;15.30;57.72;100380.72;2071206;28;47585;-56
2022/02/17 03:31:16;;;;;;;;;3.67;1.67;;;;;15.30;57.89;100379.84;2068780;28;47312;-56
2022/02/17 03:32:16;;;;;;;;;2.00;2.00;;;;;15.30;57.66;100369.16;2064033;28;47539;-58
2022/02/17 03:33:17;;;;;;;;;3.67;2.00;;;;;15.28;57.41;100373.72;2067696;28;48377;-58
2022/02/17 03:34:17;;;;;;;;;2.00;0.33;;;;;15.28;57.40;100379.06;2071648;28;47924;-57
2022/02/17 03:35:18;;;;;;;;;4.00;2.67;;;;;15.28;57.68;100395.09;2071547;28;47771;-58
2022/02/17 03:36:18;;;;;;;;;2.33;2.33;;;;;15.26;57.07;100397.84;2070945;28;47401;-59
2022/02/17 03:37:19;;;;;;;;;3.00;3.00;;;;;15.26;56.76;100392.50;2070938;28;48150;-58
2022/02/17 03:38:20;;;;;;;;;3.25;2.75;;;;;15.24;56.89;100393.50;2071200;28;47921;-56
2022/02/17 03:39:20;;;;;;;;;2.00;2.00;;;;;15.23;56.28;100381.06;2071399;28;47232;-58
2022/02/17 03:40:21;;;;;;;;;3.00;3.00;;;;;15.23;56.60;100394.44;2071106;28;48135;-58
2022/02/17 03:41:21;;;;;;;;;4.33;2.00;;;;;15.21;56.95;100394.50;2069740;28;47430;-57
2022/02/17 03:42:22;;;;;;;;;2.67;1.00;;;;;15.21;56.62;100404.34;2071134;28;48102;-56
2022/02/17 03:43:22;;;;;;;;;4.00;4.00;;;;;15.20;56.62;100395.44;2071143;28;47252;-58
2022/02/17 03:44:23;;;;;;;;;4.00;2.00;;;;;15.20;56.01;100399.94;2071518;28;47453;-59
2022/02/17 03:45:23;;;;;;;;;2.33;2.00;;;;;15.19;56.01;100382.16;2071548;28;47543;-58
2022/02/17 03:46:23;;;;;;;;;4.67;3.00;;;;;15.19;56.34;100392.84;2071093;28;47218;-58
2022/02/17 03:47:24;;;;;;;;;1.00;1.00;;;;;15.17;56.13;100395.59;2072082;28;47504;-57
2022/02/17 03:48:24;;;;;;;;;2.00;2.00;;;;;15.17;55.62;100408.09;2072649;28;47576;-58
2022/02/17 03:49:25;;;;;;;;;1.67;1.67;;;;;15.16;55.57;100395.66;2072497;28;47313;-55
2022/02/17 03:50:25;;;;;;;;;5.00;4.67;;;;;15.14;55.52;100398.41;2072988;28;47829;-57
2022/02/17 03:51:26;;;;;;;;;2.33;2.33;;;;;15.13;55.64;100415.38;2072319;28;47637;-58
2022/02/17 03:52:28;;;;;;;;;3.33;3.33;;;;;15.12;55.38;100412.75;2072527;28;47110;-57
2022/02/17 03:53:28;;;;;;;;;3.50;3.50;;;;;15.12;55.77;100421.69;2072446;28;47890;-58
2022/02/17 03:54:29;;;;;;;;;2.67;2.67;;;;;15.11;55.23;100443.09;2072591;28;47195;-56
2022/02/17 03:55:29;;;;;;;;;5.00;4.00;;;;;15.11;55.98;100435.94;2072288;28;47383;-57
2022/02/17 03:56:30;;;;;;;;;8.00;2.00;;;;;15.09;55.77;100443.16;2072863;28;48059;-58
2022/02/17 03:57:30;;;;;;;;;4.67;4.67;;;;;15.09;55.30;100431.63;2072722;28;47807;-58
2022/02/17 03:59:49;;;;;;;;;3.00;3.00;;;;;15.07;55.30;100428.16;2067099;28;47593;-58
2022/02/17 04:00:49;;;;;;;;;3.67;1.67;;;;;15.05;55.46;100444.25;2070585;28;48192;-57
2022/02/17 04:01:50;;;;;;;;;2.67;2.00;;;;;15.05;55.21;100435.38;2072341;28;47313;-57
2022/02/17 04:02:52;;;;;;;;;4.67;3.33;;;;;15.05;55.25;100452.28;2072161;28;48382;-58
2022/02/17 04:03:52;;;;;;;;;3.50;3.00;;;;;15.05;55.53;100454.94;2072677;28;48115;-57
2022/02/17 04:04:53;;;;;;;;;2.33;2.33;;;;;15.05;55.59;100451.41;2072792;28;47883;-58
2022/02/17 04:05:53;;;;;;;;;6.00;4.00;;;;;15.04;55.16;100447.88;2072775;28;48211;-59
2022/02/17 04:06:54;;;;;;;;;3.33;2.67;;;;;15.04;55.29;100452.34;2072766;28;47389;-57
2022/02/17 04:07:54;;;;;;;;;3.00;2.00;;;;;15.03;55.42;100464.84;2072976;28;45599;-57
2022/02/17 04:08:55;;;;;;;;;5.33;4.67;;;;;15.02;55.29;100477.34;2072605;28;47529;-57
2022/02/17 04:09:56;;;;;;;;;2.00;2.00;;;;;15.04;55.56;100468.38;2072400;28;47348;-57
2022/02/17 04:10:57;;;;;;;;;8.25;5.00;;;;;15.02;55.61;100463.97;2072227;28;47666;-57
2022/02/17 04:11:59;;;;;;;;;5.25;4.00;;;;;15.04;55.75;100473.72;2063245;28;47717;-58
2022/02/17 04:13:00;;;;;;;;;4.00;3.00;;;;;15.04;55.17;100473.72;2063652;28;47486;-58
2022/02/17 04:14:01;;;;;;;;;3.33;2.67;;;;;15.04;55.62;100471.06;2072681;28;47878;-56
2022/02/17 04:15:02;;;;;;;;;5.75;5.50;;;;;15.05;55.34;100478.13;2072622;28;47658;-58
2022/02/17 04:16:03;;;;;;;;;7.50;4.75;;;;;15.04;55.43;100481.75;2071868;28;46049;-56
2022/02/17 04:17:04;;;;;;;;;5.00;5.00;;;;;15.05;56.06;100480.81;2071737;28;47457;-59
2022/02/17 04:18:04;;;;;;;;;8.00;5.67;;;;;15.05;55.87;100480.81;2071819;28;47338;-56
2022/02/17 04:19:04;;;;;;;;;8.67;7.33;;;;;15.06;55.72;100477.19;2071908;28;47219;-57
2022/02/17 04:20:06;;;;;;;;;5.00;2.33;;;;;15.05;56.07;100480.81;2072793;28;47877;-58
2022/02/17 04:21:06;;;;;;;;;5.75;4.50;;;;;15.06;56.10;100482.53;2062578;28;47552;-57
2022/02/17 04:22:08;;;;;;;;;7.00;4.00;;;;;15.05;55.36;100470.97;2063125;28;47456;-56
2022/02/17 04:23:08;;;;;;;;;6.25;5.00;;;;;15.04;55.76;100476.41;2072261;28;47817;-58
2022/02/17 04:24:08;;;;;;;;;5.67;3.67;;;;;15.02;55.94;100482.69;2072843;28;47135;-58
2022/02/17 04:25:09;;;;;;;;;7.00;5.00;;;;;15.02;55.80;100482.69;2071544;28;47384;-57
2022/02/17 04:26:14;;;;;;;;;4.33;4.33;;;;;15.02;55.60;100479.13;2071744;28;47531;-57
2022/02/17 04:27:15;;;;;;;;;4.00;4.00;;;;;15.01;55.36;100483.63;2072557;28;47467;-56
2022/02/17 04:28:15;;;;;;;;;1.33;1.00;;;;;14.99;54.98;100480.16;2072338;28;47576;-58
2022/02/17 04:29:15;;;;;;;;;5.67;4.67;;;;;14.98;54.96;100481.06;2070792;28;47384;-57
2022/02/17 04:30:16;;;;;;;;;5.00;4.33;;;;;14.98;55.30;100472.16;2067405;28;47446;-58
2022/02/17 04:31:16;;;;;;;;;3.33;2.00;;;;;14.96;53.92;100490.06;2068942;28;46937;-58
2022/02/17 04:32:17;;;;;;;;;8.00;3.33;;;;;14.94;54.52;100489.28;2061800;28;47846;-57
2022/02/17 04:33:17;;;;;;;;;6.33;5.00;;;;;14.93;54.76;100500.91;2063031;28;47433;-56
2022/02/17 04:34:18;;;;;;;;;6.00;3.00;;;;;14.92;54.07;100477.78;2063008;28;47088;-56
2022/02/17 04:35:18;;;;;;;;;4.00;3.33;;;;;14.90;53.12;100488.56;2062883;28;47721;-57
2022/02/17 04:36:19;;;;;;;;;3.00;3.00;;;;;14.88;53.95;100506.47;2071879;28;47653;-57
2022/02/17 04:37:19;;;;;;;;;3.00;3.00;;;;;14.85;53.05;100527.06;2072326;28;47497;-56
2022/02/17 04:38:19;;;;;;;;;6.67;5.00;;;;;14.84;52.86;100506.63;2072112;28;47688;-58
2022/02/17 04:39:20;;;;;;;;;2.67;2.67;;;;;14.81;53.35;100515.66;2072232;28;47373;-58
2022/02/17 04:42:17;;;;;;;;;5.67;4.33;;;;;14.82;53.37;100521.88;2072024;28;47485;-58
2022/02/17 04:42:59;;;;;;;;;3.75;2.00;;;;;14.79;53.57;100538.91;2072399;28;47293;-58
2022/02/17 04:44:00;;;;;;;;;2.00;2.00;;;;;14.78;53.07;100526.47;2072407;28;48047;-59
2022/02/17 04:45:01;;;;;;;;;1.00;1.00;;;;;14.79;53.06;100532.69;2072513;28;47906;-59
2022/02/17 04:46:02;;;;;;;;;7.00;6.00;;;;;14.78;53.47;100538.97;2072249;28;47366;-59